Time;durP1;ratioP1;P1;durP2;ratioP2;P2;SDS_P1;SDS_P2;PMS_P1;PMS_P2;Temp;Humidity;BMP_temperature;BMP_pressure;BME280_temperature;BME280_humidity;BME280_pressure;Samples;Min_cycle;Max_cycle;Signal;HPM_P1;HPM_P2
2022/01/19 00:00:38;;;;;;;46.53;10.60;;;1.90;40.20;;;;;;4988213;28;20558;-68
2022/01/19 00:03:05;;;;;;;47.47;10.93;;;1.90;40.00;;;;;;4989190;28;20460;-68
2022/01/19 00:05:31;;;;;;;44.73;10.37;;;1.80;40.00;;;;;;4989618;28;20628;-67
2022/01/19 00:07:58;;;;;;;47.20;10.30;;;1.80;40.10;;;;;;4988063;28;20468;-68
2022/01/19 00:10:28;;;;;;;47.10;10.67;;;1.80;40.10;;;;;;4989420;28;20459;-67
2022/01/19 00:12:55;;;;;;;46.63;9.87;;;1.70;40.10;;;;;;4989647;28;20460;-67
2022/01/19 00:15:23;;;;;;;45.80;9.83;;;1.70;40.30;;;;;;4989589;28;20461;-67
2022/01/19 00:17:54;;;;;;;45.90;10.70;;;1.70;40.40;;;;;;4987916;28;20472;-67
2022/01/19 00:20:21;;;;;;;50.37;10.90;;;1.70;40.40;;;;;;4989098;28;21041;-67
2022/01/19 00:22:48;;;;;;;47.33;11.70;;;1.60;40.20;;;;;;4989379;28;20465;-66
2022/01/19 00:25:15;;;;;;;49.60;11.30;;;1.60;40.50;;;;;;4989470;28;20456;-68
2022/01/19 00:27:43;;;;;;;45.70;11.30;;;1.60;40.50;;;;;;4988271;28;20492;-68
2022/01/19 00:30:11;;;;;;;46.03;10.83;;;1.60;40.40;;;;;;4988366;28;20454;-67
2022/01/19 00:32:38;;;;;;;46.30;9.83;;;1.60;40.30;;;;;;4988856;28;20464;-68
2022/01/19 00:35:06;;;;;;;50.40;10.70;;;1.60;40.40;;;;;;4988877;28;20460;-67
2022/01/19 00:37:33;;;;;;;45.83;10.10;;;1.60;40.50;;;;;;4975923;28;21224;-68
2022/01/19 00:40:00;;;;;;;45.73;10.83;;;1.50;40.60;;;;;;4988191;28;20496;-67
2022/01/19 00:42:27;;;;;;;48.23;10.60;;;1.50;40.50;;;;;;4988937;28;20453;-65
2022/01/19 00:44:55;;;;;;;50.00;10.80;;;1.50;40.40;;;;;;4989379;28;20457;-66
2022/01/19 00:47:22;;;;;;;44.30;10.93;;;1.50;40.70;;;;;;4987491;28;20480;-67
2022/01/19 00:49:49;;;;;;;48.10;10.37;;;1.50;40.70;;;;;;4988566;28;20452;-67
2022/01/19 00:52:16;;;;;;;42.27;10.00;;;1.50;40.50;;;;;;4987619;28;20457;-67
2022/01/19 00:54:43;;;;;;;46.13;10.40;;;1.50;40.40;;;;;;4988991;28;20457;-67
2022/01/19 00:57:10;;;;;;;55.10;9.80;;;1.50;40.50;;;;;;4988351;28;20484;-66
2022/01/19 00:59:37;;;;;;;46.77;10.20;;;1.50;40.40;;;;;;4987824;28;20484;-67
2022/01/19 01:02:06;;;;;;;50.30;11.87;;;1.40;40.50;;;;;;4987507;28;20485;-66
2022/01/19 01:04:33;;;;;;;47.63;10.20;;;1.40;40.40;;;;;;4989079;28;20471;-67
2022/01/19 01:07:00;;;;;;;50.07;11.23;;;1.40;40.60;;;;;;4988898;28;20507;-67
2022/01/19 01:09:27;;;;;;;47.37;11.50;;;1.40;40.50;;;;;;4987722;28;20453;-66
2022/01/19 01:12:02;;;;;;;49.70;11.23;;;1.40;40.60;;;;;;4987063;28;20469;-67
2022/01/19 01:19:58;;;;;;;52.00;11.73;;;1.30;40.80;;;;;;4987046;28;20477;-65
2022/01/19 01:22:25;;;;;;;54.33;12.20;;;1.30;41.00;;;;;;4987542;28;20461;-69
2022/01/19 01:24:51;;;;;;;50.70;12.40;;;1.30;41.00;;;;;;4987975;28;20456;-64
2022/01/19 01:27:19;;;;;;;53.30;12.00;;;1.30;41.10;;;;;;4988402;28;20472;-68
2022/01/19 01:29:45;;;;;;;51.40;12.63;;;1.20;41.00;;;;;;4988420;28;20496;-67
2022/01/19 01:32:12;;;;;;;53.07;12.27;;;1.20;41.10;;;;;;4982854;28;20865;-67
2022/01/19 01:34:40;;;;;;;51.73;12.80;;;1.20;41.30;;;;;;4986652;28;20967;-67
2022/01/19 01:37:07;;;;;;;58.57;12.70;;;1.20;41.20;;;;;;4988426;28;20477;-66
2022/01/19 01:39:34;;;;;;;49.83;11.47;;;1.20;41.20;;;;;;4988447;28;20477;-67
2022/01/19 01:42:01;;;;;;;51.37;12.13;;;1.20;41.30;;;;;;4986635;28;21213;-67
2022/01/19 01:44:35;;;;;;;51.03;12.83;;;1.20;41.80;;;;;;4987543;28;20456;-67
2022/01/19 01:47:02;;;;;;;50.70;11.90;;;1.20;41.50;;;;;;4988303;28;21020;-67
2022/01/19 01:49:42;;;;;;;50.10;11.53;;;1.20;41.40;;;;;;4987685;28;20543;-67
2022/01/19 01:54:56;;;;;;;54.13;12.70;;;1.10;41.50;;;;;;4986776;28;20451;-67
2022/01/19 01:57:22;;;;;;;50.77;12.27;;;1.20;41.40;;;;;;4991232;28;20514;-67
2022/01/19 01:59:49;;;;;;;48.70;11.97;;;1.20;41.60;;;;;;4991889;28;20476;-66
2022/01/19 02:02:16;;;;;;;48.43;11.33;;;1.20;41.60;;;;;;4991562;28;20484;-67
2022/01/19 02:04:43;;;;;;;53.40;12.70;;;1.30;41.80;;;;;;4990709;28;20468;-68
2022/01/19 02:07:31;;;;;;;51.27;12.30;;;1.30;41.60;;;;;;4991932;28;20566;-67
2022/01/19 02:10:01;;;;;;;55.07;12.97;;;1.40;41.60;;;;;;4977701;28;20453;-67
2022/01/19 02:23:52;;;;;;;47.53;11.40;;;1.60;41.40;;;;;;4931179;29;20448;-67
2022/01/19 02:26:30;;;;;;;52.40;13.37;;;1.70;41.40;;;;;;4976741;28;20504;-67
2022/01/19 02:29:03;;;;;;;47.77;11.50;;;1.70;41.60;;;;;;4990671;28;20951;-66
2022/01/19 02:36:32;;;;;;;51.37;11.40;;;1.80;41.60;;;;;;4986204;28;20472;-69
2022/01/19 02:40:15;;;;;;;52.73;13.70;;;1.60;41.60;;;;;;4987501;28;20837;-68
2022/01/19 02:42:55;;;;;;;51.90;11.53;;;1.90;41.70;;;;;;4990453;28;20467;-67
2022/01/19 02:50:52;;;;;;;56.03;12.30;;;2.00;41.50;;;;;;4989854;28;20511;-68
2022/01/19 02:53:20;;;;;;;51.53;11.20;;;2.00;41.30;;;;;;4991247;28;20463;-68
2022/01/19 02:55:47;;;;;;;47.67;11.90;;;2.00;41.20;;;;;;4990876;28;20459;-67
2022/01/19 02:58:18;;;;;;;45.40;10.53;;;1.90;41.20;;;;;;4991303;28;20514;-67
2022/01/19 03:09:07;;;;;;;44.83;11.10;;;1.90;41.30;;;;;;4991196;28;20451;-67
2022/01/19 03:11:36;;;;;;;48.93;12.20;;;1.90;41.10;;;;;;4988972;28;20461;-67
2022/01/19 03:14:04;;;;;;;47.87;11.17;;;2.00;41.10;;;;;;4989879;28;20492;-68
2022/01/19 03:16:31;;;;;;;47.17;11.77;;;2.00;41.10;;;;;;4990951;28;20476;-67
2022/01/19 03:18:58;;;;;;;51.20;12.77;;;2.00;41.10;;;;;;4991211;28;20453;-67
2022/01/19 03:21:24;;;;;;;47.07;11.60;;;2.10;41.10;;;;;;4990370;28;20457;-68
2022/01/19 03:23:51;;;;;;;48.30;12.53;;;2.10;41.10;;;;;;4989661;28;20468;-68
2022/01/19 03:26:19;;;;;;;50.30;11.83;;;2.10;41.10;;;;;;4989158;28;21026;-67
2022/01/19 03:28:46;;;;;;;50.00;11.47;;;2.10;41.10;;;;;;4991074;28;20457;-67
2022/01/19 03:31:13;;;;;;;49.10;11.87;;;2.20;41.20;;;;;;4989732;28;20503;-67
2022/01/19 03:33:39;;;;;;;45.20;11.17;;;2.20;41.00;;;;;;4989406;28;20469;-67
2022/01/19 03:36:06;;;;;;;49.33;11.90;;;2.20;41.20;;;;;;4990198;28;20476;-67
2022/01/19 03:38:33;;;;;;;48.83;11.40;;;2.20;41.00;;;;;;4989302;28;20467;-67
2022/01/19 03:41:00;;;;;;;49.10;12.00;;;2.20;40.80;;;;;;4989565;28;21197;-67
2022/01/19 03:43:28;;;;;;;47.07;12.90;;;2.30;40.80;;;;;;4988979;28;20990;-68
2022/01/19 03:45:58;;;;;;;46.60;10.93;;;2.30;41.60;;;;;;4989515;28;20484;-67
2022/01/19 03:48:37;;;;;;;45.53;11.33;;;2.30;40.80;;;;;;4989365;28;20457;-69
2022/01/19 03:51:05;;;;;;;50.43;12.43;;;2.30;40.90;;;;;;4980120;28;20453;-67
2022/01/19 03:53:32;;;;;;;50.30;11.73;;;2.30;40.80;;;;;;4989957;28;20456;-68
2022/01/19 03:55:59;;;;;;;48.03;11.63;;;2.30;40.90;;;;;;4987746;28;20489;-68
2022/01/19 03:58:26;;;;;;;45.83;10.13;;;2.40;40.80;;;;;;4989362;28;20459;-68
2022/01/19 04:00:57;;;;;;;46.43;12.10;;;2.40;40.70;;;;;;4989114;28;20481;-68
2022/01/19 04:03:33;;;;;;;47.53;11.70;;;2.40;40.80;;;;;;4990330;28;20457;-67
2022/01/19 04:06:06;;;;;;;50.33;12.50;;;2.40;40.70;;;;;;4984118;28;20484;-68
2022/01/19 04:08:32;;;;;;;50.70;12.13;;;2.30;40.60;;;;;;4982397;28;20464;-67
2022/01/19 04:10:59;;;;;;;47.90;12.23;;;2.40;40.50;;;;;;4988738;28;20955;-67
2022/01/19 04:13:33;;;;;;;52.03;12.83;;;2.40;40.40;;;;;;4989625;28;20449;-68
2022/01/19 04:16:01;;;;;;;48.03;12.07;;;2.40;40.50;;;;;;4988039;28;20507;-66
2022/01/19 04:18:28;;;;;;;51.43;12.60;;;2.40;40.50;;;;;;4988791;28;20459;-66
2022/01/19 04:20:54;;;;;;;52.73;14.03;;;2.40;40.60;;;;;;4988851;28;20484;-68
2022/01/19 04:23:22;;;;;;;54.07;15.00;;;2.40;40.80;;;;;;4989088;28;20456;-64
2022/01/19 04:25:49;;;;;;;48.63;13.40;;;2.40;40.80;;;;;;4987833;28;20531;-68
2022/01/19 04:28:16;;;;;;;49.70;13.93;;;2.40;40.80;;;;;;4985395;28;20999;-68
2022/01/19 04:30:44;;;;;;;52.77;12.87;;;2.40;40.80;;;;;;4987291;28;20539;-67
2022/01/19 04:33:15;;;;;;;52.53;15.23;;;2.40;40.90;;;;;;4988578;28;20464;-68
2022/01/19 04:35:49;;;;;;;52.40;13.17;;;2.40;41.10;;;;;;4988923;28;20456;-67
2022/01/19 04:44:27;;;;;;;55.30;16.20;;;2.30;41.10;;;;;;4987338;28;20480;-68
2022/01/19 04:47:43;;;;;;;53.83;14.97;;;2.40;41.10;;;;;;5030515;22;20583;-64
2022/01/19 05:03:58;;;;;;;53.43;14.07;;;2.50;41.10;;;;;;5028783;28;20463;-64
2022/01/19 05:06:26;;;;;;;55.93;16.17;;;2.50;41.10;;;;;;5020450;28;20476;-64
2022/01/19 05:09:02;;;;;;;50.47;14.97;;;2.50;41.30;;;;;;5016970;28;20478;-64
2022/01/19 05:14:13;;;;;;;53.97;14.80;;;2.60;41.30;;;;;;5035150;28;20441;-64
2022/01/19 05:16:40;;;;;;;52.03;15.93;;;2.60;41.30;;;;;;5023690;28;20490;-64
2022/01/19 05:19:07;;;;;;;52.70;17.40;;;2.60;41.50;;;;;;5034913;28;20474;-65
2022/01/19 05:21:35;;;;;;;60.83;17.67;;;2.60;41.40;;;;;;5039278;28;20486;-65
2022/01/19 05:24:04;;;;;;;58.60;15.90;;;2.60;41.60;;;;;;5026227;28;20466;-63
2022/01/19 05:26:32;;;;;;;55.33;15.97;;;2.70;41.60;;;;;;5036294;28;20477;-63
2022/01/19 05:28:59;;;;;;;56.00;17.70;;;2.70;41.40;;;;;;5034898;28;20550;-63
2022/01/19 05:31:26;;;;;;;54.73;18.30;;;2.70;41.40;;;;;;5027605;28;20477;-63
2022/01/19 05:33:53;;;;;;;54.87;15.43;;;2.70;41.40;;;;;;5032215;28;20458;-63
2022/01/19 05:36:20;;;;;;;51.77;15.37;;;2.80;41.30;;;;;;5035634;28;20491;-62
2022/01/19 05:38:48;;;;;;;54.50;17.43;;;2.70;41.20;;;;;;5022442;28;20451;-63
2022/01/19 05:41:15;;;;;;;55.83;16.30;;;2.80;41.30;;;;;;5029130;28;20478;-61
2022/01/19 05:43:41;;;;;;;55.40;16.17;;;2.80;41.20;;;;;;5021995;28;20459;-62
2022/01/19 05:46:08;;;;;;;54.90;16.07;;;2.80;41.30;;;;;;5038958;28;20458;-63
2022/01/19 05:48:35;;;;;;;60.87;17.50;;;2.80;41.30;;;;;;5028949;28;20482;-63
2022/01/19 05:51:02;;;;;;;50.87;14.20;;;2.80;41.20;;;;;;5047686;28;20962;-63
2022/01/19 05:53:28;;;;;;;53.70;14.83;;;2.80;41.20;;;;;;5022882;28;21088;-63
2022/01/19 05:55:56;;;;;;;54.37;16.23;;;2.90;41.40;;;;;;5035968;28;20447;-63
2022/01/19 05:58:23;;;;;;;51.20;15.87;;;2.90;41.20;;;;;;5018334;28;20843;-64
2022/01/19 06:00:50;;;;;;;53.87;16.63;;;2.90;41.60;;;;;;5028200;28;21010;-63
2022/01/19 06:03:17;;;;;;;53.87;16.37;;;2.90;41.00;;;;;;5027400;28;20459;-62
2022/01/19 06:05:44;;;;;;;55.10;17.90;;;2.90;41.00;;;;;;5027059;28;20493;-63
2022/01/19 06:08:19;;;;;;;53.23;15.70;;;2.60;40.90;;;;;;5031061;28;20486;-63
2022/01/19 06:10:46;;;;;;;54.23;16.07;;;3.00;41.00;;;;;;5029035;28;20492;-63
2022/01/19 06:13:18;;;;;;;55.53;16.23;;;3.00;40.70;;;;;;5035664;28;21139;-63
2022/01/19 06:15:46;;;;;;;52.10;15.37;;;3.00;40.80;;;;;;5020247;28;20455;-63
2022/01/19 06:18:13;;;;;;;54.50;15.70;;;3.00;40.80;;;;;;5028352;28;20482;-62
2022/01/19 06:20:41;;;;;;;52.27;15.70;;;3.00;40.90;;;;;;5037941;28;20481;-63
2022/01/19 06:23:08;;;;;;;54.47;14.90;;;3.00;41.00;;;;;;5027676;28;20463;-62
2022/01/19 06:25:35;;;;;;;52.53;16.50;;;3.00;41.10;;;;;;5027277;28;20455;-63
2022/01/19 06:28:02;;;;;;;52.90;15.40;;;3.00;41.00;;;;;;5019387;28;20579;-62
2022/01/19 06:30:31;;;;;;;49.33;15.07;;;3.00;40.90;;;;;;5022236;28;20458;-62
2022/01/19 06:32:57;;;;;;;50.43;15.53;;;3.00;41.00;;;;;;5022578;28;20458;-62
2022/01/19 06:35:24;;;;;;;50.10;14.90;;;3.00;41.10;;;;;;5026804;28;20455;-61
2022/01/19 06:37:51;;;;;;;55.43;15.73;;;3.00;41.20;;;;;;5019416;28;21004;-63
2022/01/19 06:40:20;;;;;;;50.50;15.57;;;3.00;41.00;;;;;;5037735;28;20481;-64
2022/01/19 06:42:47;;;;;;;51.87;15.30;;;3.00;41.00;;;;;;5029189;28;20459;-63
2022/01/19 06:45:15;;;;;;;56.80;17.83;;;3.00;40.90;;;;;;5026807;28;20458;-63
2022/01/19 06:47:44;;;;;;;53.67;15.80;;;3.00;41.10;;;;;;5030983;28;20486;-63
2022/01/19 06:50:12;;;;;;;52.07;15.30;;;3.00;40.90;;;;;;5030289;28;20458;-64
2022/01/19 06:52:40;;;;;;;53.63;16.77;;;3.00;41.10;;;;;;5025296;28;20482;-62
2022/01/19 06:55:08;;;;;;;54.17;17.10;;;3.00;41.40;;;;;;5032414;28;20490;-63
2022/01/19 06:57:35;;;;;;;51.80;15.60;;;3.00;41.60;;;;;;5023190;28;20475;-63
2022/01/19 07:00:02;;;;;;;51.93;16.27;;;3.10;41.60;;;;;;5028189;28;20462;-64
2022/01/19 07:02:29;;;;;;;51.73;15.83;;;3.10;41.50;;;;;;5029329;28;21098;-62
2022/01/19 07:04:57;;;;;;;51.30;15.33;;;3.10;41.40;;;;;;5028503;28;20456;-63
2022/01/19 07:07:24;;;;;;;54.07;17.87;;;3.20;41.10;;;;;;5028342;28;20490;-63
2022/01/19 07:09:51;;;;;;;54.90;16.03;;;3.20;41.80;;;;;;5024890;28;20451;-63
2022/01/19 07:12:17;;;;;;;54.27;15.27;;;3.20;40.40;;;;;;5017728;28;20460;-62
2022/01/19 07:14:45;;;;;;;55.03;17.33;;;3.20;40.50;;;;;;5023833;28;20958;-63
2022/01/19 07:17:11;;;;;;;52.40;16.37;;;3.20;40.50;;;;;;5024573;28;20479;-64
2022/01/19 07:19:38;;;;;;;53.90;16.93;;;3.20;40.60;;;;;;5028324;28;20456;-63
2022/01/19 07:22:06;;;;;;;48.70;15.20;;;3.20;40.70;;;;;;5021464;28;20505;-63
2022/01/19 07:24:33;;;;;;;51.83;16.93;;;3.20;40.40;;;;;;5024762;28;20462;-62
2022/01/19 07:27:00;;;;;;;51.83;16.70;;;3.30;40.10;;;;;;5021717;28;20489;-63
2022/01/19 07:29:27;;;;;;;51.90;16.37;;;3.30;40.20;;;;;;5015993;28;20452;-62
2022/01/19 07:31:56;;;;;;;51.67;16.00;;;3.30;40.00;;;;;;5037346;28;20470;-62
2022/01/19 07:34:22;;;;;;;52.57;16.80;;;3.30;40.20;;;;;;5021324;28;20455;-63
2022/01/19 07:36:49;;;;;;;56.10;16.53;;;3.30;40.20;;;;;;5026090;28;20571;-63
2022/01/19 07:39:17;;;;;;;50.47;16.60;;;3.30;40.30;;;;;;5019627;28;20467;-63
2022/01/19 07:41:44;;;;;;;56.60;18.17;;;3.30;40.00;;;;;;5028677;28;20483;-63
2022/01/19 07:44:11;;;;;;;53.10;17.27;;;3.30;40.10;;;;;;5027352;28;20468;-64
2022/01/19 07:46:38;;;;;;;54.00;17.27;;;3.30;40.20;;;;;;5024159;28;20494;-63
2022/01/19 07:49:04;;;;;;;52.60;16.07;;;3.40;39.90;;;;;;5024731;28;20458;-62
2022/01/19 07:51:31;;;;;;;52.20;16.67;;;3.40;39.50;;;;;;5026134;28;20451;-63
2022/01/19 07:53:58;;;;;;;51.57;15.87;;;3.40;39.70;;;;;;5026772;28;20451;-63
2022/01/19 07:56:26;;;;;;;55.17;18.97;;;3.40;39.70;;;;;;5017467;28;20476;-62
2022/01/19 07:58:53;;;;;;;55.37;17.97;;;3.50;39.90;;;;;;5023898;28;20464;-63
2022/01/19 08:01:20;;;;;;;54.97;17.60;;;3.50;39.90;;;;;;5025550;28;20482;-62
2022/01/19 08:03:46;;;;;;;56.83;18.30;;;3.50;39.80;;;;;;5021863;28;20499;-62
2022/01/19 08:06:14;;;;;;;53.07;17.43;;;3.50;39.60;;;;;;5013376;28;20531;-63
2022/01/19 08:08:41;;;;;;;54.50;17.37;;;3.60;39.50;;;;;;5027536;28;20473;-63
2022/01/19 08:11:08;;;;;;;55.10;19.07;;;3.60;39.30;;;;;;5035324;28;20452;-64
2022/01/19 08:13:36;;;;;;;52.57;17.43;;;3.60;39.20;;;;;;5034380;28;20459;-63
2022/01/19 08:16:03;;;;;;;52.20;16.50;;;3.60;38.90;;;;;;5017866;28;20463;-64
2022/01/19 08:18:30;;;;;;;56.00;17.07;;;3.70;39.20;;;;;;5023563;28;20470;-63
2022/01/19 08:20:57;;;;;;;52.47;16.37;;;3.70;39.00;;;;;;5022815;28;20479;-63
2022/01/19 08:23:24;;;;;;;52.73;17.47;;;3.70;38.90;;;;;;5017177;28;20455;-64
2022/01/19 08:25:51;;;;;;;54.60;16.60;;;3.80;38.50;;;;;;5018387;28;20462;-63
2022/01/19 08:28:17;;;;;;;52.33;16.57;;;3.80;38.40;;;;;;5018842;28;20539;-64
2022/01/19 08:30:45;;;;;;;54.30;18.83;;;3.80;38.50;;;;;;5023003;28;20463;-62
2022/01/19 08:33:12;;;;;;;54.10;16.13;;;3.80;38.50;;;;;;5032111;28;20448;-62
2022/01/19 08:35:39;;;;;;;52.20;17.03;;;3.90;38.40;;;;;;5021300;28;20466;-63
2022/01/19 08:38:06;;;;;;;56.00;16.73;;;4.00;38.20;;;;;;5013222;28;20486;-63
2022/01/19 08:40:34;;;;;;;53.97;17.33;;;4.10;37.50;;;;;;5023550;28;20475;-63
2022/01/19 08:43:01;;;;;;;51.60;15.37;;;4.20;37.20;;;;;;5034127;28;20455;-63
2022/01/19 08:45:28;;;;;;;54.27;17.60;;;4.30;36.80;;;;;;5009066;28;20537;-62
2022/01/19 08:47:56;;;;;;;52.13;16.83;;;4.30;37.00;;;;;;5009273;28;20480;-62
2022/01/19 08:50:23;;;;;;;52.80;16.87;;;4.40;36.80;;;;;;5028501;28;20469;-61
2022/01/19 08:52:50;;;;;;;50.77;16.13;;;4.50;36.30;;;;;;5031952;28;20455;-63
2022/01/19 08:55:18;;;;;;;52.43;17.20;;;4.70;35.90;;;;;;5011315;28;20456;-61
2022/01/19 08:57:46;;;;;;;51.50;16.93;;;4.90;35.70;;;;;;5013627;28;20554;-63
2022/01/19 09:00:15;;;;;;;52.07;17.20;;;5.10;35.10;;;;;;5026439;28;20535;-63
2022/01/19 09:02:42;;;;;;;49.73;16.50;;;5.30;34.30;;;;;;5029558;28;21065;-62
2022/01/19 09:05:11;;;;;;;50.60;15.60;;;5.50;33.90;;;;;;5023998;28;20463;-63
2022/01/19 09:07:39;;;;;;;51.10;17.03;;;5.60;33.30;;;;;;5018878;28;20484;-63
2022/01/19 09:10:09;;;;;;;49.97;15.27;;;6.10;32.50;;;;;;5012581;28;20448;-62
2022/01/19 09:12:36;;;;;;;51.73;16.70;;;6.90;31.20;;;;;;5022826;28;20552;-62
2022/01/19 09:15:04;;;;;;;47.90;15.10;;;7.90;29.20;;;;;;5020345;28;20466;-62
2022/01/19 09:17:31;;;;;;;49.17;15.47;;;8.90;26.50;;;;;;5022255;28;20486;-63
2022/01/19 09:19:58;;;;;;;48.90;15.20;;;9.60;23.40;;;;;;5014780;28;20459;-63
2022/01/19 09:22:26;;;;;;;48.57;15.37;;;10.20;22.00;;;;;;5017748;28;20481;-60
2022/01/19 09:24:53;;;;;;;48.43;15.40;;;10.80;19.90;;;;;;5036532;28;20465;-62
2022/01/19 09:27:21;;;;;;;47.20;15.30;;;11.20;19.20;;;;;;5047873;28;20482;-62
2022/01/19 09:29:48;;;;;;;46.73;16.87;;;11.70;18.30;;;;;;5019288;28;20463;-61
2022/01/19 09:32:15;;;;;;;46.37;15.73;;;12.30;17.40;;;;;;5014730;28;20478;-61
2022/01/19 09:34:48;;;;;;;43.80;15.00;;;12.90;15.70;;;;;;5025779;28;21183;-61
2022/01/19 09:37:16;;;;;;;45.90;16.37;;;13.90;14.00;;;;;;5024596;28;20485;-61
2022/01/19 09:39:44;;;;;;;41.63;15.30;;;14.90;12.20;;;;;;5025584;28;20459;-62
2022/01/19 09:42:11;;;;;;;42.37;14.93;;;16.10;10.90;;;;;;5023395;28;20483;-62
2022/01/19 09:44:38;;;;;;;41.20;14.40;;;16.80;8.80;;;;;;5034032;28;20462;-61
2022/01/19 09:47:05;;;;;;;43.63;16.03;;;17.40;7.40;;;;;;5033439;28;20490;-61
2022/01/19 09:49:33;;;;;;;43.23;16.13;;;17.40;7.20;;;;;;5009727;28;20459;-60
2022/01/19 09:52:00;;;;;;;42.10;15.10;;;18.30;6.80;;;;;;5008540;28;20455;-61
2022/01/19 09:54:29;;;;;;;43.57;15.10;;;19.10;5.00;;;;;;5020828;28;20457;-60
2022/01/19 09:56:57;;;;;;;41.57;14.97;;;19.80;4.30;;;;;;5026986;28;20482;-59
2022/01/19 09:59:24;;;;;;;42.50;15.80;;;20.60;3.50;;;;;;5015936;28;20451;-62
2022/01/19 10:01:54;;;;;;;41.93;14.80;;;21.30;2.40;;;;;;5020564;28;20473;-62
2022/01/19 10:04:24;;;;;;;41.03;15.40;;;21.80;1.30;;;;;;5035190;28;20843;-62
2022/01/19 10:06:52;;;;;;;40.37;14.40;;;22.20;1.00;;;;;;5027346;28;20490;-62
2022/01/19 10:09:29;;;;;;;38.23;14.47;;;22.60;1.00;;;;;;5027261;28;20467;-60
2022/01/19 10:17:39;;;;;;;38.90;14.90;;;23.50;1.00;;;;;;5019332;28;20467;-61
2022/01/19 10:20:06;;;;;;;38.80;14.40;;;23.70;1.00;;;;;;5012412;28;20486;-63
2022/01/19 10:22:33;;;;;;;38.87;14.60;;;24.00;1.00;;;;;;5014647;28;21071;-64
2022/01/19 10:25:02;;;;;;;40.33;16.10;;;24.40;1.00;;;;;;5029647;28;20980;-64
2022/01/19 10:27:35;;;;;;;40.20;15.20;;;24.80;1.00;;;;;;5035986;28;21029;-62
2022/01/19 10:30:18;;;;;;;39.93;15.07;;;25.00;1.00;;;;;;5029325;28;20480;-60
2022/01/19 10:32:48;;;;;;;37.70;13.27;;;25.20;1.00;;;;;;5020012;28;20472;-62
2022/01/19 10:35:21;;;;;;;37.77;14.80;;;25.40;1.00;;;;;;5023125;28;20785;-62
2022/01/19 10:37:50;;;;;;;38.27;14.63;;;25.70;1.00;;;;;;5030813;28;20478;-61
2022/01/19 10:40:18;;;;;;;37.63;14.13;;;26.00;1.00;;;;;;5032959;28;21087;-62
2022/01/19 10:42:48;;;;;;;37.40;13.70;;;26.30;1.00;;;;;;5044612;28;20485;-62
2022/01/19 10:45:16;;;;;;;36.70;13.20;;;26.50;1.00;;;;;;5029904;28;20470;-62
2022/01/19 10:47:49;;;;;;;37.60;13.20;;;26.70;1.00;;;;;;5044065;23;20505;-68
2022/01/19 10:50:21;;;;;;;36.73;13.43;;;26.70;1.00;;;;;;5031393;28;20470;-68
2022/01/19 10:52:49;;;;;;;35.63;12.77;;;26.80;1.00;;;;;;5030535;28;20458;-68
2022/01/19 10:55:27;;;;;;;37.07;14.27;;;26.80;1.00;;;;;;5029460;28;20470;-70
2022/01/19 10:57:56;;;;;;;37.00;13.33;;;26.70;1.00;;;;;;5022694;28;20474;-68
2022/01/19 11:00:26;;;;;;;36.67;13.57;;;26.70;1.00;;;;;;5011524;28;20517;-67
2022/01/19 11:02:55;;;;;;;37.90;14.20;;;26.60;1.00;;;;;;5015544;28;20574;-69
2022/01/19 11:05:41;;;;;;;38.80;13.20;;;26.50;1.00;;;;;;5025311;28;20466;-67
2022/01/19 11:08:09;;;;;;;37.50;14.47;;;26.40;1.00;;;;;;5023260;28;21027;-71
2022/01/19 11:10:36;;;;;;;38.07;13.33;;;26.40;1.00;;;;;;5023567;28;20461;-71
2022/01/19 11:13:06;;;;;;;39.10;13.47;;;26.40;1.00;;;;;;5017507;28;20541;-70
2022/01/19 11:15:33;;;;;;;41.10;14.47;;;26.10;1.00;;;;;;5017189;28;21052;-68
2022/01/19 11:18:00;;;;;;;38.67;15.10;;;25.90;1.00;;;;;;5024959;28;20483;-68
2022/01/19 11:20:28;;;;;;;38.13;13.93;;;25.80;1.00;;;;;;5029762;28;21141;-67
2022/01/19 11:23:13;;;;;;;40.03;14.00;;;25.60;1.00;;;;;;5016622;28;20477;-68
2022/01/19 11:25:59;;;;;;;38.57;14.03;;;25.30;1.00;;;;;;5020246;28;20498;-66
2022/01/19 11:28:33;;;;;;;38.73;14.93;;;25.20;1.00;;;;;;5026800;28;20487;-66
2022/01/19 11:31:02;;;;;;;39.10;15.40;;;25.10;1.00;;;;;;5026764;28;20859;-66
2022/01/19 11:33:30;;;;;;;38.53;13.70;;;24.90;1.00;;;;;;5024468;28;20462;-67
2022/01/19 11:36:00;;;;;;;37.00;13.23;;;24.60;1.00;;;;;;5029944;28;20462;-66
2022/01/19 11:38:39;;;;;;;37.27;13.10;;;24.20;1.00;;;;;;5029336;28;20548;-66
2022/01/19 11:41:38;;;;;;;40.23;13.67;;;23.70;1.00;;;;;;5029115;28;20474;-66
2022/01/19 11:44:08;;;;;;;38.87;14.07;;;23.20;1.00;;;;;;5023318;28;20455;-67
2022/01/19 11:46:39;;;;;;;37.73;13.70;;;22.70;1.00;;;;;;5028324;28;20451;-66
2022/01/19 11:49:09;;;;;;;44.10;15.37;;;22.20;1.00;;;;;;5028264;28;20478;-66
2022/01/19 11:51:38;;;;;;;40.70;15.40;;;21.80;1.00;;;;;;5028651;28;20462;-67
2022/01/19 11:54:16;;;;;;;39.70;14.00;;;21.40;1.00;;;;;;5021951;28;20466;-67
2022/01/19 11:57:07;;;;;;;42.20;15.03;;;21.00;1.00;;;;;;5023955;28;20517;-67
2022/01/19 12:00:19;;;;;;;39.07;13.63;;;20.70;1.50;;;;;;5025454;28;20455;-67
2022/01/19 12:02:50;;;;;;;40.17;14.07;;;20.20;1.70;;;;;;5018670;28;20468;-65
2022/01/19 12:05:24;;;;;;;42.67;13.97;;;19.80;2.70;;;;;;5029135;28;20455;-66
2022/01/19 12:07:53;;;;;;;40.47;13.90;;;19.30;2.70;;;;;;5027202;28;20479;-67
2022/01/19 12:10:22;;;;;;;39.47;14.10;;;18.90;2.70;;;;;;5022428;28;20475;-68
2022/01/19 12:13:28;;;;;;;41.53;14.70;;;18.70;3.00;;;;;;5027732;28;21023;-65
2022/01/19 12:16:00;;;;;;;40.17;13.33;;;18.30;3.30;;;;;;5023506;28;20455;-67
2022/01/19 12:18:49;;;;;;;41.87;15.30;;;17.90;4.00;;;;;;5016140;28;20471;-66
2022/01/19 12:21:37;;;;;;;42.80;14.23;;;17.60;4.60;;;;;;5021937;28;20471;-67
2022/01/19 12:24:21;;;;;;;47.20;15.93;;;17.30;5.10;;;;;;5024444;28;20478;-66
2022/01/19 12:26:51;;;;;;;42.70;14.23;;;17.10;5.60;;;;;;5017644;28;20957;-68
2022/01/19 12:29:37;;;;;;;42.13;13.33;;;16.90;6.00;;;;;;5016371;28;20480;-67
2022/01/19 12:32:05;;;;;;;45.50;14.40;;;16.60;6.30;;;;;;5026487;28;20598;-67
2022/01/19 12:34:43;;;;;;;43.43;14.33;;;16.50;6.70;;;;;;5018271;28;20458;-66
2022/01/19 12:37:12;;;;;;;43.30;13.73;;;16.30;6.90;;;;;;5017913;28;20463;-67
2022/01/19 12:39:44;;;;;;;47.27;14.57;;;16.00;7.00;;;;;;5018344;28;20462;-67
2022/01/19 12:42:19;;;;;;;44.80;15.13;;;15.90;7.60;;;;;;5015194;28;20475;-66
2022/01/19 12:44:48;;;;;;;43.87;15.40;;;15.80;8.00;;;;;;5019236;28;20546;-67
2022/01/19 12:47:45;;;;;;;47.10;16.87;;;15.50;8.20;;;;;;5013672;28;20466;-67
2022/01/19 12:50:42;;;;;;;50.20;17.33;;;15.40;8.60;;;;;;5028730;28;20566;-67
2022/01/19 12:53:15;;;;;;;48.97;17.47;;;15.20;8.90;;;;;;5022735;28;20460;-65
2022/01/19 12:55:44;;;;;;;45.50;16.57;;;15.00;9.10;;;;;;5028658;28;20465;-67
2022/01/19 12:58:14;;;;;;;46.30;15.90;;;14.90;9.30;;;;;;5026716;28;21040;-69
2022/01/19 13:00:41;;;;;;;46.23;16.33;;;14.70;9.60;;;;;;5026762;28;20470;-68
2022/01/19 13:03:17;;;;;;;51.33;15.93;;;14.60;10.00;;;;;;5025939;28;20490;-68
2022/01/19 13:05:52;;;;;;;47.83;16.57;;;14.40;10.40;;;;;;5023527;28;20459;-67
2022/01/19 13:08:37;;;;;;;46.80;16.40;;;14.30;10.30;;;;;;5027170;28;20574;-65
2022/01/19 13:11:26;;;;;;;48.07;15.97;;;14.10;10.40;;;;;;5020185;28;20494;-69
2022/01/19 13:13:57;;;;;;;46.30;16.47;;;13.90;11.20;;;;;;5021217;28;20834;-69
2022/01/19 13:16:30;;;;;;;46.70;15.80;;;13.70;11.70;;;;;;5023526;28;20455;-66
2022/01/19 13:19:02;;;;;;;47.87;16.57;;;13.60;11.70;;;;;;5016550;28;20495;-67
2022/01/19 13:21:30;;;;;;;48.10;17.93;;;13.40;12.10;;;;;;5011244;28;20460;-66
2022/01/19 13:23:59;;;;;;;49.97;16.67;;;13.30;12.40;;;;;;5019926;28;20479;-68
2022/01/19 13:26:40;;;;;;;47.20;16.97;;;13.20;12.90;;;;;;5019171;28;20459;-69
2022/01/19 13:29:28;;;;;;;47.60;17.10;;;13.10;13.30;;;;;;5015972;28;20480;-68
2022/01/19 13:31:58;;;;;;;47.20;16.10;;;13.00;13.70;;;;;;5020583;28;20529;-64
2022/01/19 13:34:25;;;;;;;50.93;17.13;;;12.90;13.60;;;;;;5021121;28;20459;-69
2022/01/19 13:36:59;;;;;;;51.77;19.37;;;12.70;14.10;;;;;;5023950;28;20463;-65
2022/01/19 13:39:26;;;;;;;52.33;19.00;;;12.50;14.50;;;;;;5028952;28;20461;-66
2022/01/19 13:41:54;;;;;;;51.60;19.87;;;12.30;14.70;;;;;;5026995;28;20956;-65
2022/01/19 13:44:30;;;;;;;50.23;18.27;;;12.10;15.30;;;;;;5020745;28;20490;-66
2022/01/19 13:47:05;;;;;;;55.03;20.13;;;11.90;15.70;;;;;;5028259;28;20540;-68
2022/01/19 13:49:32;;;;;;;55.43;20.53;;;11.60;16.10;;;;;;5029395;28;20983;-66
2022/01/19 13:52:00;;;;;;;52.17;18.90;;;11.50;16.60;;;;;;5030099;28;20451;-67
2022/01/19 13:54:27;;;;;;;53.57;18.93;;;11.30;16.90;;;;;;5028128;28;20455;-66
2022/01/19 13:56:59;;;;;;;56.60;20.00;;;11.00;17.30;;;;;;5014310;28;20973;-67